Time;durP1;ratioP1;P1;durP2;ratioP2;P2;SDS_P1;SDS_P2;PMS_P1;PMS_P2;Temp;Humidity;BMP_temperature;BMP_pressure;BME280_temperature;BME280_humidity;BME280_pressure;Samples;Min_cycle;Max_cycle;Signal;HPM_P1;HPM_P2
2021/01/13 00:00:37;;;;;;;9.00;6.60;;;;;;;0.12;79.30;95319.28;1757808;81;21155;-76
2021/01/13 00:03:05;;;;;;;9.28;7.40;;;;;;;0.12;79.55;95328.70;1756181;81;21318;-76
2021/01/13 00:05:31;;;;;;;9.23;6.40;;;;;;;0.12;79.61;95323.11;1753061;81;21161;-76
2021/01/13 00:07:57;;;;;;;6.92;6.15;;;;;;;0.13;79.64;95340.05;1756011;80;21118;-77
2021/01/13 00:10:23;;;;;;;8.08;6.75;;;;;;;0.12;79.85;95338.44;1759337;80;21086;-76
2021/01/13 00:12:49;;;;;;;9.65;6.78;;;;;;;0.14;79.90;95347.23;1751295;81;21418;-78
2021/01/13 00:15:15;;;;;;;6.65;5.78;;;;;;;0.14;80.21;95351.87;1756489;81;21217;-78
2021/01/13 00:17:47;;;;;;;7.40;5.97;;;;;;;0.14;80.19;95351.87;1756479;81;21138;-78
2021/01/13 00:20:13;;;;;;;7.60;6.62;;;;;;;0.15;80.25;95350.92;1753370;81;21123;-79
2021/01/13 00:22:39;;;;;;;7.62;6.78;;;;;;;0.15;80.40;95364.97;1760111;81;21134;-78
2021/01/13 00:25:07;;;;;;;8.15;5.92;;;;;;;0.16;80.36;95358.11;1755936;81;21122;-79
2021/01/13 00:27:34;;;;;;;7.75;6.37;;;;;;;0.21;80.41;95362.34;1756435;80;21160;-78
2021/01/13 00:30:00;;;;;;;7.35;5.95;;;;;;;0.22;80.53;95361.39;1759726;81;21452;-78
2021/01/13 00:32:26;;;;;;;8.55;6.95;;;;;;;0.22;80.70;95356.28;1757164;81;21256;-78
2021/01/13 00:34:52;;;;;;;7.53;6.45;;;;;;;0.17;80.90;95370.77;1756202;81;21149;-79
2021/01/13 00:37:18;;;;;;;7.67;6.90;;;;;;;0.13;81.10;95380.11;1749503;80;21237;-78
2021/01/13 00:39:44;;;;;;;9.70;8.10;;;;;;;0.11;80.95;95382.81;1757040;81;21147;-78
2021/01/13 00:42:10;;;;;;;7.58;6.78;;;;;;;0.11;80.89;95388.39;1756982;81;21114;-78
2021/01/13 00:44:40;;;;;;;8.98;7.00;;;;;;;0.10;81.33;95389.34;1749722;81;21119;-80
2021/01/13 00:47:07;;;;;;;10.93;8.48;;;;;;;0.08;80.79;95395.06;1747373;81;21088;-79
2021/01/13 00:49:33;;;;;;;10.90;8.80;;;;;;;0.10;80.82;95395.25;1745652;81;21114;-79
2021/01/13 00:51:59;;;;;;;8.83;7.92;;;;;;;0.15;80.80;95394.82;1750519;81;21128;-79
2021/01/13 00:54:25;;;;;;;11.45;8.25;;;;;;;0.18;80.79;95399.20;1748477;81;21110;-79
2021/01/13 00:56:51;;;;;;;10.10;8.20;;;;;;;0.18;80.65;95401.75;1746417;80;21948;-80
2021/01/13 00:59:17;;;;;;;10.78;9.68;;;;;;;0.15;81.03;95401.20;1746642;81;21234;-79
2021/01/13 01:01:43;;;;;;;11.43;8.88;;;;;;;0.11;80.81;95404.52;1745718;81;21362;-79
2021/01/13 01:04:10;;;;;;;12.68;9.25;;;;;;;0.18;80.86;95414.52;1745880;81;21087;-77
2021/01/13 01:06:36;;;;;;;10.43;9.20;;;;;;;0.22;80.80;95421.42;1749606;81;21129;-77
2021/01/13 01:09:04;;;;;;;11.40;9.35;;;;;;;0.25;80.75;95421.14;1750387;80;21534;-77
2021/01/13 01:11:32;;;;;;;9.63;8.60;;;;;;;0.27;80.69;95428.19;1745828;81;21158;-79
2021/01/13 01:13:59;;;;;;;13.08;10.23;;;;;;;0.23;80.77;95430.70;1745061;81;21098;-79
2021/01/13 01:16:32;;;;;;;12.98;9.80;;;;;;;0.19;80.67;95421.24;1744341;81;21137;-79
2021/01/13 01:18:59;;;;;;;12.85;10.03;;;;;;;0.18;80.60;95428.58;1747053;81;21093;-78
2021/01/13 01:21:26;;;;;;;11.73;10.40;;;;;;;0.18;80.64;95426.50;1750042;81;21129;-79
2021/01/13 01:23:53;;;;;;;11.22;9.40;;;;;;;0.17;80.53;95427.44;1753121;81;21132;-79
2021/01/13 01:26:19;;;;;;;11.55;9.50;;;;;;;0.17;80.59;95433.83;1751080;81;21127;-78
2021/01/13 01:28:45;;;;;;;9.83;8.93;;;;;;;0.14;80.41;95435.36;1719734;81;21132;-78
2021/01/13 01:31:11;;;;;;;10.00;8.83;;;;;;;0.14;80.31;95430.25;1743240;81;21087;-78
2021/01/13 01:33:37;;;;;;;9.85;8.48;;;;;;;0.11;80.34;95422.88;1745553;81;21135;-78
2021/01/13 01:36:04;;;;;;;12.33;9.95;;;;;;;0.16;80.55;95436.02;1746640;81;21143;-78
2021/01/13 01:38:30;;;;;;;14.23;9.98;;;;;;;0.16;80.54;95439.86;1747415;80;22271;-79
2021/01/13 01:41:07;;;;;;;12.50;10.93;;;;;;;0.13;80.54;95434.56;1746998;81;21147;-79
2021/01/13 01:43:34;;;;;;;14.45;10.28;;;;;;;0.14;80.50;95436.64;1744959;81;22160;-78
2021/01/13 01:46:00;;;;;;;11.97;10.58;;;;;;;0.16;80.41;95449.63;1744883;81;21106;-79
2021/01/13 01:48:40;;;;;;;12.10;10.38;;;;;;;0.18;80.44;95446.93;1742444;81;21144;-78
2021/01/13 01:51:06;;;;;;;11.75;10.32;;;;;;;0.17;80.50;95452.98;1749044;81;21486;-79
2021/01/13 01:53:58;;;;;;;11.20;9.60;;;;;;;0.15;80.42;95456.94;1748724;81;21290;-79
2021/01/13 01:56:27;;;;;;;12.80;9.85;;;;;;;0.17;80.57;95454.27;1743831;80;21127;-78
2021/01/13 01:59:03;;;;;;;13.70;9.80;;;;;;;0.16;80.30;95462.41;1745253;81;21115;-77
2021/01/13 02:01:32;;;;;;;13.93;10.03;;;;;;;0.17;80.34;95469.12;1746448;81;21121;-77
2021/01/13 02:04:30;;;;;;;13.78;10.58;;;;;;;0.15;80.23;95467.63;1748465;81;21126;-77
2021/01/13 02:07:10;;;;;;;13.13;9.98;;;;;;;0.14;80.29;95463.46;1744882;81;21119;-76
2021/01/13 02:09:37;;;;;;;12.53;10.58;;;;;;;0.11;80.08;95465.83;1746454;80;21239;-77
2021/01/13 02:12:13;;;;;;;14.33;10.35;;;;;;;0.11;80.19;95462.00;1747013;81;21134;-77
2021/01/13 02:14:41;;;;;;;13.62;10.03;;;;;;;0.08;80.15;95452.54;1745787;81;21106;-77
2021/01/13 02:17:10;;;;;;;12.35;9.40;;;;;;;0.04;80.03;95455.84;1746725;81;21260;-77
2021/01/13 02:19:51;;;;;;;13.70;11.57;;;;;;;0.03;79.97;95452.97;1751906;81;21131;-77
2021/01/13 02:22:25;;;;;;;15.95;11.53;;;;;;;0.01;79.89;95456.14;1751764;81;21139;-79
2021/01/13 02:25:17;;;;;;;14.05;11.38;;;;;;;-0.02;79.96;95452.08;1743472;81;21146;-79
2021/01/13 02:28:01;;;;;;;12.33;10.90;;;;;;;0.00;79.90;95457.08;1742469;81;21091;-76
2021/01/13 02:30:41;;;;;;;13.00;10.28;;;;;;;-0.05;79.79;95461.78;1748108;81;21143;-77
2021/01/13 02:33:30;;;;;;;12.30;9.85;;;;;;;-0.06;79.83;95467.36;1748925;81;21123;-77
2021/01/13 02:36:17;;;;;;;11.05;9.05;;;;;;;-0.12;79.84;95467.13;1746696;81;21277;-77
2021/01/13 02:38:45;;;;;;;13.50;10.23;;;;;;;-0.12;80.00;95457.71;1749754;80;21277;-76
2021/01/13 02:41:16;;;;;;;12.47;10.45;;;;;;;-0.10;80.02;95460.13;1655742;84;21368;-76
2021/01/13 02:43:58;;;;;;;12.03;9.55;;;;;;;-0.10;79.94;95457.57;1751386;81;21159;-76
2021/01/13 02:46:58;;;;;;;14.10;10.68;;;;;;;-0.13;79.86;95454.83;1706817;82;21131;-76
2021/01/13 02:49:30;;;;;;;13.50;9.43;;;;;;;-0.13;79.78;95458.66;1749034;81;21119;-77
2021/01/13 02:52:03;;;;;;;12.00;10.00;;;;;;;-0.13;79.75;95456.10;1744508;81;21276;-77
2021/01/13 02:54:32;;;;;;;11.70;8.90;;;;;;;-0.12;79.71;95453.08;1719385;81;21248;-77
2021/01/13 02:57:19;;;;;;;11.80;10.13;;;;;;;-0.14;79.71;95445.55;1745180;81;21127;-77
2021/01/13 02:59:49;;;;;;;9.75;8.23;;;;;;;-0.11;79.64;95452.13;1741633;81;21139;-77
2021/01/13 03:02:16;;;;;;;11.68;10.08;;;;;;;-0.09;79.58;95446.41;1748387;81;21135;-76
2021/01/13 03:04:42;;;;;;;12.63;8.85;;;;;;;-0.06;79.51;95454.59;1753838;81;21119;-77
2021/01/13 03:07:17;;;;;;;11.25;9.63;;;;;;;-0.05;79.47;95451.09;1750304;81;21439;-77
2021/01/13 03:09:48;;;;;;;13.28;9.20;;;;;;;-0.03;79.59;95453.03;1742874;80;21503;-77
2021/01/13 03:12:39;;;;;;;14.50;11.17;;;;;;;-0.05;79.51;95452.37;1746776;81;21114;-77
2021/01/13 03:15:07;;;;;;;12.37;10.85;;;;;;;-0.03;79.60;95447.92;1755073;81;21109;-76
2021/01/13 03:17:42;;;;;;;14.20;12.07;;;;;;;-0.04;79.42;95446.78;1756823;80;21071;-77
2021/01/13 03:20:30;;;;;;;9.83;7.65;;;;;;;-0.05;79.33;95449.81;1753736;81;21925;-77
2021/01/13 03:23:11;;;;;;;13.15;10.45;;;;;;;-0.11;79.34;95447.83;1753414;81;21142;-77
2021/01/13 03:25:47;;;;;;;13.50;10.13;;;;;;;-0.15;79.34;95450.33;1752264;81;21119;-76
2021/01/13 03:28:14;;;;;;;13.03;9.73;;;;;;;-0.16;79.47;95455.11;1754475;81;21086;-77
2021/01/13 03:30:40;;;;;;;10.32;8.60;;;;;;;-0.16;79.48;95452.55;1753346;81;21075;-77
2021/01/13 03:33:27;;;;;;;11.90;10.03;;;;;;;-0.18;79.48;95460.80;1755103;81;21102;-77
2021/01/13 03:36:05;;;;;;;13.32;9.95;;;;;;;-0.19;79.44;95463.48;1759587;80;21078;-77
2021/01/13 03:38:31;;;;;;;10.68;8.93;;;;;;;-0.20;79.37;95455.03;1753667;80;21138;-77
2021/01/13 03:41:03;;;;;;;10.40;9.28;;;;;;;-0.18;79.35;95468.45;1754448;81;21463;-77
2021/01/13 03:43:38;;;;;;;10.78;9.65;;;;;;;-0.20;79.26;95469.54;1753792;81;21134;-76
2021/01/13 03:46:09;;;;;;;12.13;8.80;;;;;;;-0.17;79.22;95475.64;1749954;81;21299;-77
2021/01/13 03:48:50;;;;;;;12.88;8.93;;;;;;;-0.17;79.39;95480.75;1753794;81;21232;-77
2021/01/13 03:51:46;;;;;;;11.60;8.43;;;;;;;-0.17;79.35;95477.73;1757489;81;21114;-77
2021/01/13 03:54:12;;;;;;;8.10;7.22;;;;;;;-0.17;79.46;95472.62;1754498;81;21368;-77
2021/01/13 03:56:55;;;;;;;10.45;8.58;;;;;;;-0.19;79.28;95478.34;1753067;81;21108;-77
2021/01/13 03:59:30;;;;;;;10.03;8.78;;;;;;;-0.21;79.18;95485.33;1699722;81;21360;-77
2021/01/13 04:01:58;;;;;;;11.38;9.78;;;;;;;-0.24;79.01;95489.44;1753775;81;21114;-77
2021/01/13 04:04:44;;;;;;;10.68;9.65;;;;;;;-0.25;79.09;95489.11;1755972;81;21130;-77
2021/01/13 04:07:10;;;;;;;8.23;7.42;;;;;;;-0.26;79.04;95497.72;1754288;81;21096;-77
2021/01/13 04:09:38;;;;;;;11.73;9.28;;;;;;;-0.28;78.96;95511.56;1711762;81;21607;-77
2021/01/13 04:12:16;;;;;;;28.32;16.42;;;;;;;-0.31;79.19;95516.00;1755093;81;21146;-77
2021/01/13 04:14:55;;;;;;;12.15;8.80;;;;;;;-0.37;79.44;95517.80;1752797;81;21470;-77
2021/01/13 04:17:26;;;;;;;10.15;8.73;;;;;;;-0.40;79.46;95530.84;1694246;82;21135;-77
2021/01/13 04:19:52;;;;;;;11.18;7.92;;;;;;;-0.44;79.71;95538.44;1730650;82;21127;-77
2021/01/13 04:22:25;;;;;;;10.30;8.80;;;;;;;-0.48;80.06;95538.84;1718358;82;21094;-77
2021/01/13 04:24:50;;;;;;;13.62;9.53;;;;;;;-0.54;80.18;95547.02;1731102;82;21437;-77
2021/01/13 04:27:16;;;;;;;13.32;10.88;;;;;;;-0.58;80.06;95545.21;1737067;82;21146;-77
2021/01/13 04:29:43;;;;;;;13.10;11.53;;;;;;;-0.60;80.06;95549.65;1733974;82;21151;-77
2021/01/13 04:32:10;;;;;;;16.77;12.03;;;;;;;-0.58;80.11;95554.61;1731941;82;21230;-77
2021/01/13 04:34:37;;;;;;;14.93;10.98;;;;;;;-0.56;80.21;95552.26;1724872;82;21121;-77
2021/01/13 04:37:05;;;;;;;13.22;10.30;;;;;;;-0.56;80.15;95550.98;1723911;81;21447;-77
2021/01/13 04:39:32;;;;;;;20.82;12.73;;;;;;;-0.56;80.01;95555.28;1727386;82;21097;-77
2021/01/13 04:42:05;;;;;;;21.05;13.08;;;;;;;-0.56;79.90;95558.64;1726091;82;21382;-77
2021/01/13 04:44:47;;;;;;;14.65;9.70;;;;;;;-0.57;79.83;95559.58;1723846;81;21389;-77
2021/01/13 04:47:13;;;;;;;14.03;10.28;;;;;;;-0.60;79.49;95554.75;1715929;82;21335;-77
2021/01/13 04:49:39;;;;;;;10.68;7.47;;;;;;;-0.64;79.24;95568.25;1725403;82;21136;-77
2021/01/13 04:52:18;;;;;;;6.85;5.65;;;;;;;-0.68;78.86;95573.26;1725480;82;21142;-77
2021/01/13 04:54:47;;;;;;;10.78;6.67;;;;;;;-0.68;78.47;95583.94;1727065;82;22033;-77
2021/01/13 04:57:27;;;;;;;9.23;5.35;;;;;;;-0.74;78.16;95589.58;1723143;82;21057;-77
2021/01/13 05:00:08;;;;;;;8.70;5.47;;;;;;;-0.80;77.35;95589.64;1715978;82;21542;-77
2021/01/13 05:02:50;;;;;;;12.20;6.72;;;;;;;-0.82;77.21;95600.41;1730115;82;21143;-77
2021/01/13 05:05:21;;;;;;;9.95;5.90;;;;;;;-0.85;77.44;95613.44;1729311;82;21234;-77
2021/01/13 05:08:20;;;;;;;13.58;6.67;;;;;;;-0.86;77.19;95607.19;1695430;83;21155;-77
2021/01/13 05:10:47;;;;;;;12.88;6.17;;;;;;;-0.89;77.00;95603.16;1669688;83;21128;-76
2021/01/13 05:13:17;;;;;;;21.17;11.28;;;;;;;-0.89;76.90;95598.06;1676003;82;21378;-77
2021/01/13 05:15:55;;;;;;;9.15;5.37;;;;;;;-0.89;76.97;95599.34;1725245;81;21148;-76
2021/01/13 05:18:55;;;;;;;16.32;9.28;;;;;;;-0.92;76.17;95597.86;1735985;81;21812;-77
2021/01/13 05:21:25;;;;;;;20.20;9.38;;;;;;;-0.93;76.35;95606.45;1737159;81;21123;-76
2021/01/13 05:23:56;;;;;;;13.15;7.53;;;;;;;-0.91;76.67;95613.97;1737723;81;21486;-76
2021/01/13 05:26:26;;;;;;;18.48;8.75;;;;;;;-0.88;76.75;95616.72;1756512;79;21496;-76
2021/01/13 05:29:06;;;;;;;26.70;12.58;;;;;;;-0.85;76.76;95618.53;1754903;79;21255;-76
2021/01/13 05:31:34;;;;;;;15.88;7.47;;;;;;;-0.83;76.83;95623.50;1751759;79;21127;-76
2021/01/13 05:34:02;;;;;;;17.65;9.55;;;;;;;-0.82;76.57;95616.99;1758127;79;21263;-78
2021/01/13 05:36:33;;;;;;;23.20;11.60;;;;;;;-0.83;76.56;95623.50;1756654;79;21105;-78
2021/01/13 05:39:08;;;;;;;13.30;7.53;;;;;;;-0.84;76.70;95626.52;1759364;80;21082;-79
2021/01/13 05:41:37;;;;;;;14.75;7.20;;;;;;;-0.85;76.54;95624.91;1758951;79;21114;-79
2021/01/13 05:44:04;;;;;;;10.82;6.67;;;;;;;-0.84;76.71;95634.17;1755484;80;21192;-78
2021/01/13 05:46:45;;;;;;;8.60;6.67;;;;;;;-0.84;76.63;95634.64;1755011;79;21325;-78
2021/01/13 05:49:12;;;;;;;17.70;10.35;;;;;;;-0.88;76.28;95633.30;1756391;79;21145;-78
2021/01/13 05:51:38;;;;;;;16.48;8.95;;;;;;;-0.93;76.08;95637.52;1755093;79;21135;-79
2021/01/13 05:54:05;;;;;;;9.75;5.37;;;;;;;-0.95;76.40;95638.12;1755232;79;21300;-78
2021/01/13 05:56:37;;;;;;;13.22;7.28;;;;;;;-0.96;76.18;95640.33;1755041;79;21111;-78
2021/01/13 05:59:04;;;;;;;;;;;;;;;-0.95;76.31;95638.12;1730482;80;21115;-79
2021/01/13 06:01:53;;;;;;;9.55;6.50;;;;;;;-0.96;76.44;95639.86;1754179;79;20326;-78
2021/01/13 06:04:19;;;;;;;7.08;5.47;;;;;;;-0.94;76.46;95643.56;1735588;82;21366;-79
2021/01/13 06:07:11;;;;;;;9.68;6.92;;;;;;;-0.94;76.24;95652.02;1685769;83;21154;-78
2021/01/13 06:09:42;;;;;;;9.33;6.40;;;;;;;-0.94;76.17;95652.02;1723088;81;21121;-78
2021/01/13 06:12:17;;;;;;;10.13;6.58;;;;;;;-0.95;76.23;95653.42;1696659;82;21095;-78
2021/01/13 06:14:46;;;;;;;10.40;6.50;;;;;;;-0.92;76.32;95650.61;1727983;81;21106;-78
2021/01/13 06:17:21;;;;;;;8.85;5.95;;;;;;;-0.93;76.04;95662.55;1751728;80;21110;-78
2021/01/13 06:19:53;;;;;;;8.23;5.53;;;;;;;-0.91;76.09;95660.67;1760479;79;21225;-78
2021/01/13 06:22:31;;;;;;;9.60;7.10;;;;;;;-0.90;76.01;95672.96;1754639;79;21121;-79
2021/01/13 06:25:02;;;;;;;10.13;6.58;;;;;;;-0.89;75.95;95670.75;1756975;79;21235;-78
2021/01/13 06:27:49;;;;;;;8.90;6.08;;;;;;;-0.89;75.70;95677.13;1762887;79;21339;-78
2021/01/13 06:30:21;;;;;;;11.90;6.40;;;;;;;-0.89;75.59;95675.84;1759228;79;22096;-76
2021/01/13 06:33:08;;;;;;;15.05;8.25;;;;;;;-0.92;75.43;95685.84;1751632;80;21149;-76
2021/01/13 06:35:46;;;;;;;11.88;7.90;;;;;;;-0.91;75.33;95681.08;1762684;80;21102;-76
2021/01/13 06:38:27;;;;;;;12.50;6.60;;;;;;;-0.94;75.28;95678.79;1757765;79;21169;-77
2021/01/13 06:40:59;;;;;;;17.20;9.73;;;;;;;-0.95;75.21;95694.22;1756718;79;21142;-77
2021/01/13 06:43:25;;;;;;;17.03;11.30;;;;;;;-0.93;75.38;95705.10;1756088;79;21789;-76
2021/01/13 06:45:51;;;;;;;18.25;10.55;;;;;;;-0.93;75.09;95703.83;1761609;79;21118;-77
2021/01/13 06:48:27;;;;;;;11.40;9.08;;;;;;;-0.91;75.13;95701.95;1755846;79;21105;-78
2021/01/13 06:50:58;;;;;;;14.93;11.85;;;;;;;-0.88;75.34;95702.16;1753131;79;21114;-76
2021/01/13 06:53:33;;;;;;;23.57;18.02;;;;;;;-0.85;75.19;95707.00;1756253;79;21085;-76
2021/01/13 06:56:00;;;;;;;25.80;17.70;;;;;;;-0.82;75.28;95706.27;1756265;79;21081;-76
2021/01/13 06:58:27;;;;;;;15.98;9.80;;;;;;;-0.79;75.13;95709.86;1756864;79;21255;-76
2021/01/13 07:01:01;;;;;;;117.72;68.85;;;;;;;-0.79;75.10;95712.88;1749913;80;21177;-76
2021/01/13 07:03:30;;;;;;;225.28;132.05;;;;;;;-0.78;75.18;95711.94;1758097;79;21473;-76
2021/01/13 07:06:10;;;;;;;236.45;126.75;;;;;;;-0.77;75.00;95704.63;1754615;80;21403;-77
2021/01/13 07:08:37;;;;;;;264.85;112.50;;;;;;;-0.73;75.13;95705.51;1734772;81;21336;-78
2021/01/13 07:11:12;;;;;;;161.03;74.10;;;;;;;-0.66;75.22;95708.34;1762414;79;21337;-80
2021/01/13 07:13:53;;;;;;;175.35;85.30;;;;;;;-0.63;75.12;95704.28;1761962;79;21141;-81
2021/01/13 07:16:28;;;;;;;319.20;134.85;;;;;;;-0.59;75.15;95705.62;1764080;79;21355;-81
2021/01/13 07:18:59;;;;;;;388.10;118.80;;;;;;;-0.58;75.03;95710.27;1759945;79;21222;-80
2021/01/13 07:21:39;;;;;;;168.15;50.95;;;;;;;-0.61;74.63;95717.24;1761700;80;21090;-79
2021/01/13 07:24:13;;;;;;;201.37;62.88;;;;;;;-0.64;74.69;95708.58;1772713;79;21098;-79
2021/01/13 07:26:40;;;;;;;58.83;21.17;;;;;;;-0.63;74.53;95708.91;1763412;79;21109;-79
2021/01/13 07:29:07;;;;;;;100.12;40.25;;;;;;;-0.63;74.66;95724.69;1761226;79;21287;-79
2021/01/13 07:31:33;;;;;;;68.25;25.30;;;;;;;-0.61;74.36;95724.09;1760633;79;21602;-79
2021/01/13 07:34:12;;;;;;;385.22;104.43;;;;;;;-0.64;74.07;95726.91;1762249;79;21474;-81
2021/01/13 07:36:39;;;;;;;104.30;28.12;;;;;;;-0.64;74.14;95735.37;1758435;80;21352;-80
2021/01/13 07:39:07;;;;;;;268.37;71.97;;;;;;;-0.69;73.83;95729.82;1761699;79;21455;-78
2021/01/13 07:42:07;;;;;;;371.60;94.40;;;;;;;-0.67;74.11;95725.86;1762862;79;21136;-78
2021/01/13 07:44:44;;;;;;;123.60;37.67;;;;;;;-0.66;74.09;95736.41;1747266;79;21109;-79
2021/01/13 07:47:28;;;;;;;60.67;19.65;;;;;;;-0.62;74.06;95733.49;1757204;79;21082;-79
2021/01/13 07:50:13;;;;;;;14.23;8.20;;;;;;;-0.57;74.08;95736.12;1762335;80;21121;-79
2021/01/13 07:52:47;;;;;;;14.05;8.03;;;;;;;-0.53;73.68;95729.81;1753332;80;21689;-79
2021/01/13 07:55:17;;;;;;;104.15;30.40;;;;;;;-0.52;73.54;95739.08;1757823;80;21078;-79
2021/01/13 07:57:47;;;;;;;17.40;7.42;;;;;;;-0.51;73.43;95741.97;1750916;80;21355;-77
2021/01/13 08:00:36;;;;;;;10.60;6.53;;;;;;;-0.53;72.91;95742.57;1755008;80;21109;-77
2021/01/13 08:03:47;;;;;;;106.37;30.20;;;;;;;-0.57;72.98;95737.39;1758990;80;21099;-78
2021/01/13 08:06:29;;;;;;;31.77;12.95;;;;;;;-0.56;73.51;95737.73;1765976;80;21095;-77
2021/01/13 08:09:13;;;;;;;117.20;33.63;;;;;;;-0.53;73.59;95735.72;1753383;80;21215;-77
2021/01/13 08:12:10;;;;;;;139.52;39.63;;;;;;;-0.48;73.72;95729.78;1746332;80;21097;-78
2021/01/13 08:15:14;;;;;;;79.22;26.50;;;;;;;-0.42;73.61;95724.14;1750090;80;21105;-77
2021/01/13 08:17:54;;;;;;;86.47;27.93;;;;;;;-0.38;73.30;95729.79;1748815;80;21147;-78
2021/01/13 08:21:22;;;;;;;186.12;54.77;;;;;;;-0.34;73.44;95717.09;1758660;80;21260;-77
2021/01/13 08:24:01;;;;;;;129.85;38.88;;;;;;;-0.27;73.45;95718.20;1757864;80;21108;-78
2021/01/13 08:26:24;;;;;;;140.32;42.15;;;;;;;-0.27;73.45;95728.42;1777064;80;21239;-79
2021/01/13 08:28:52;;;;;;;79.40;25.60;;;;;;;-0.27;73.53;95737.83;1766889;80;21422;-78
2021/01/13 08:31:22;;;;;;;13.00;9.25;;;;;;;-0.27;73.40;95736.08;1775576;80;21106;-79
2021/01/13 08:33:54;;;;;;;18.60;11.15;;;;;;;-0.28;73.43;95744.67;1756957;81;21280;-80
2021/01/13 08:36:20;;;;;;;40.73;16.47;;;;;;;-0.23;73.36;95746.83;1766637;80;21331;-79
2021/01/13 08:39:13;;;;;;;147.93;49.80;;;;;;;-0.18;73.30;95749.79;1757723;80;21149;-79
2021/01/13 08:41:41;;;;;;;118.02;35.98;;;;;;;-0.19;73.20;95751.53;1770569;80;21138;-80
2021/01/13 08:44:15;;;;;;;47.23;18.27;;;;;;;-0.16;73.03;95750.02;1703799;81;22068;-79
2021/01/13 08:47:01;;;;;;;35.65;15.55;;;;;;;-0.15;73.05;95750.83;1765160;80;21351;-80
2021/01/13 08:49:30;;;;;;;50.78;17.82;;;;;;;-0.14;73.15;95746.06;1694746;83;21115;-79
2021/01/13 08:52:15;;;;;;;53.17;19.87;;;;;;;-0.10;73.17;95751.23;1764387;80;21122;-80
2021/01/13 08:54:45;;;;;;;22.62;12.37;;;;;;;-0.06;72.81;95753.38;1761799;80;21093;-79
2021/01/13 08:57:12;;;;;;;29.55;13.93;;;;;;;-0.10;72.68;95752.04;1756527;80;21140;-79
2021/01/13 08:59:45;;;;;;;32.35;15.78;;;;;;;-0.06;72.96;95762.80;1771731;80;21104;-79
2021/01/13 09:02:16;;;;;;;41.30;15.18;;;;;;;-0.02;73.04;95763.66;1769235;80;21153;-78
2021/01/13 09:04:58;;;;;;;22.58;11.33;;;;;;;-0.02;72.80;95757.28;1780054;80;21090;-78
2021/01/13 09:07:30;;;;;;;105.85;36.75;;;;;;;-0.05;72.86;95752.91;1763382;79;21095;-77
2021/01/13 09:10:02;;;;;;;34.88;16.52;;;;;;;0.02;73.21;95751.47;1759843;80;21133;-78
2021/01/13 09:12:34;;;;;;;29.12;13.03;;;;;;;0.07;72.58;95748.50;1768293;80;21150;-77
2021/01/13 09:15:15;;;;;;;9.95;7.00;;;;;;;0.06;72.64;95753.27;1759538;80;21356;-78
2021/01/13 09:17:53;;;;;;;9.08;6.22;;;;;;;0.05;72.75;95752.94;1732192;80;21214;-78
2021/01/13 09:20:27;;;;;;;7.58;5.00;;;;;;;0.04;72.66;95758.52;1772006;80;21352;-78
2021/01/13 09:23:02;;;;;;;10.38;5.90;;;;;;;0.01;72.83;95763.90;1740214;80;21161;-78
2021/01/13 09:25:33;;;;;;;58.70;22.37;;;;;;;-0.04;72.69;95764.27;1732102;81;21114;-78
2021/01/13 09:28:14;;;;;;;17.07;9.43;;;;;;;-0.12;73.35;95765.41;1702107;83;21461;-77
2021/01/13 09:30:41;;;;;;;55.47;20.50;;;;;;;-0.15;73.71;95768.23;1771473;80;21145;-78
2021/01/13 09:33:11;;;;;;;61.20;24.10;;;;;;;-0.16;74.00;95766.62;1758609;80;21348;-78
2021/01/13 09:35:46;;;;;;;44.13;17.45;;;;;;;-0.20;74.36;95761.88;1751720;80;21227;-78
2021/01/13 09:41:24;;;;;;;30.57;15.72;;;;;;;-0.05;74.74;95760.11;1800433;77;22972;-76
2021/01/13 09:43:50;;;;;;;36.38;18.07;;;;;;;-0.01;74.45;95760.17;1821803;78;21078;-80
2021/01/13 09:46:28;;;;;;;27.60;14.50;;;;;;;-0.05;74.26;95755.00;1764612;78;21308;-81
2021/01/13 09:49:01;;;;;;;27.67;15.35;;;;;;;-0.15;74.25;95759.30;1815135;78;21054;-81
2021/01/13 09:51:28;;;;;;;61.40;31.17;;;;;;;-0.10;74.31;95752.04;1811334;78;21062;-79
2021/01/13 09:53:56;;;;;;;20.77;11.48;;;;;;;-0.02;74.36;95756.00;1812374;78;21173;-79
2021/01/13 09:56:22;;;;;;;19.48;10.30;;;;;;;0.06;73.95;95748.97;1783568;80;21308;-79
2021/01/13 09:58:49;;;;;;;35.45;13.35;;;;;;;0.03;73.58;95747.16;1683101;81;21153;-79
2021/01/13 10:01:28;;;;;;;38.42;17.07;;;;;;;0.02;73.63;95745.55;1767215;81;21489;-80
2021/01/13 10:03:55;;;;;;;43.95;21.55;;;;;;;0.02;73.78;95741.25;1752893;81;21356;-78
2021/01/13 10:06:30;;;;;;;14.95;9.93;;;;;;;0.07;73.73;95742.92;1759946;81;21987;-79
2021/01/13 10:08:59;;;;;;;13.53;8.58;;;;;;;0.08;73.66;95733.04;1753009;81;21125;-79
2021/01/13 10:11:28;;;;;;;20.12;11.97;;;;;;;0.22;73.80;95732.66;1713730;81;21264;-78
2021/01/13 10:14:00;;;;;;;12.68;7.72;;;;;;;0.27;73.36;95723.30;1747650;81;21130;-79
2021/01/13 10:16:28;;;;;;;17.10;9.83;;;;;;;0.31;73.18;95731.02;1737520;81;21117;-79
2021/01/13 10:18:59;;;;;;;12.82;8.48;;;;;;;0.39;73.36;95722.70;1750360;81;21379;-78
2021/01/13 10:21:36;;;;;;;15.83;9.33;;;;;;;0.42;72.76;95723.23;1760158;81;21998;-78
2021/01/13 10:24:09;;;;;;;12.68;7.28;;;;;;;0.43;72.93;95721.01;1763279;81;21070;-79
2021/01/13 10:26:43;;;;;;;14.63;9.63;;;;;;;0.39;72.90;95729.09;1770303;81;21153;-79
2021/01/13 10:29:11;;;;;;;11.63;7.80;;;;;;;0.38;72.94;95728.28;1764692;81;21145;-79
2021/01/13 10:31:38;;;;;;;11.15;5.95;;;;;;;0.43;73.12;95724.84;1759642;81;21149;-79
2021/01/13 10:34:05;;;;;;;18.00;10.32;;;;;;;0.47;72.64;95719.79;1770228;81;21477;-79
2021/01/13 10:36:38;;;;;;;18.12;10.60;;;;;;;0.53;72.74;95721.83;1762910;81;21109;-79
2021/01/13 10:39:09;;;;;;;10.40;6.90;;;;;;;0.59;72.96;95717.43;1729717;81;21139;-78
2021/01/13 10:41:45;;;;;;;12.45;7.22;;;;;;;0.75;72.81;95704.09;1738152;82;21356;-80
2021/01/13 10:44:18;;;;;;;10.35;6.00;;;;;;;0.80;72.67;95709.58;1729434;82;21129;-81
2021/01/13 10:46:52;;;;;;;8.30;5.17;;;;;;;0.79;72.23;95702.05;1752910;80;21177;-80
2021/01/13 10:49:35;;;;;;;8.53;5.72;;;;;;;0.72;71.85;95699.25;1752218;80;21260;-81
2021/01/13 10:52:17;;;;;;;10.82;7.17;;;;;;;0.75;72.28;95708.39;1727077;81;21255;-79
2021/01/13 10:54:54;;;;;;;10.20;6.08;;;;;;;0.74;72.14;95708.87;1744147;81;21118;-79
2021/01/13 10:57:31;;;;;;;7.70;4.92;;;;;;;0.65;72.12;95708.43;1713502;82;21142;-79
2021/01/13 11:00:08;;;;;;;7.83;4.97;;;;;;;0.55;72.58;95714.82;1727057;81;21142;-79
2021/01/13 11:02:34;;;;;;;10.78;6.00;;;;;;;0.39;73.03;95708.17;1747168;80;21405;-80
2021/01/13 11:05:01;;;;;;;8.20;5.15;;;;;;;0.34;73.71;95706.98;1740015;81;21308;-80
2021/01/13 11:07:47;;;;;;;7.90;5.72;;;;;;;0.25;74.06;95711.94;1726554;81;21110;-77
2021/01/13 11:10:13;;;;;;;8.93;7.50;;;;;;;0.19;74.33;95706.57;1730447;81;22099;-78
2021/01/13 11:12:39;;;;;;;8.35;7.10;;;;;;;0.21;74.55;95700.38;1749860;80;21116;-77
2021/01/13 11:15:08;;;;;;;16.17;9.80;;;;;;;0.24;74.71;95701.86;1733803;81;21255;-77
2021/01/13 11:17:35;;;;;;;11.97;8.85;;;;;;;0.21;74.62;95703.41;1751928;81;21130;-77
2021/01/13 11:20:07;;;;;;;11.25;9.10;;;;;;;0.14;74.93;95690.34;1742906;81;21110;-77
2021/01/13 11:22:48;;;;;;;17.05;9.60;;;;;;;0.10;75.01;95697.14;1736672;81;21121;-77
2021/01/13 11:25:22;;;;;;;18.48;11.43;;;;;;;0.13;75.10;95696.87;1729674;81;21250;-79
2021/01/13 11:28:09;;;;;;;14.18;9.03;;;;;;;0.16;75.26;95687.21;1699334;82;21085;-78
2021/01/13 11:30:38;;;;;;;19.37;10.70;;;;;;;0.12;75.31;95685.04;1758116;81;21461;-77
2021/01/13 11:33:08;;;;;;;24.32;13.53;;;;;;;0.07;75.61;95688.01;1731147;81;21378;-77
2021/01/13 11:35:36;;;;;;;34.03;16.05;;;;;;;0.06;75.95;95679.20;1711140;82;21281;-78
2021/01/13 11:41:45;;;;;;;12.30;8.60;;;;;;;0.11;76.43;95678.31;1755558;79;23457;-76
2021/01/13 11:44:43;;;;;;;16.05;9.73;;;;;;;0.05;76.78;95680.14;1721860;82;21384;-77
2021/01/13 11:47:18;;;;;;;168.52;72.62;;;;;;;-0.06;76.50;95681.06;1683185;84;21132;-78
2021/01/13 11:49:56;;;;;;;28.07;17.27;;;;;;;-0.05;76.96;95686.04;1693340;83;21126;-78
2021/01/13 11:52:26;;;;;;;15.03;10.40;;;;;;;-0.06;77.17;95687.45;1709089;82;21247;-78
2021/01/13 11:54:55;;;;;;;11.50;8.95;;;;;;;-0.05;77.21;95687.79;1671389;85;21271;-78
2021/01/13 12:00:18;;;;;;;14.07;8.98;;;;;;;-0.03;77.47;95681.61;1796399;78;22580;-78
2021/01/13 12:02:50;;;;;;;17.37;12.85;;;;;;;-0.07;77.55;95682.02;1777827;80;21391;-78
2021/01/13 12:05:31;;;;;;;9.60;8.37;;;;;;;-0.04;77.67;95678.72;1782628;78;21072;-79